Ashland, WV

12:37 AM EDT on August 25, 2016 (GMT -0400)
Parkview Heights | | Change Station

Elev 2402 ft 37.24 °N, 81.28 °W | Updated 2 seconds ago

Clear
Clear
65.6 °F
Feels Like 65.6 °F
N
0.0
Wind Variable Wind from North
Gusts 0.0 mph

Today
High -- | Low -- °F
--% Chance of Precip.
Yesterday
High -- | Low -- °F
Precip. -- in
Pressure 30.18 in
Visibility 10.0 miles
Clouds Clear
Dew Point 64 °F
Humidity 94%
Rainfall 0.00 in
Snow Depth Not available.
6:50 AM 8:03 PM
Waning Gibbous, 50% visible
METAR KBLF 250352Z AUTO 20004KT 10SM CLR 21/17 A3028 RMK AO2 SLP220 T02060172
Pressure 30.18 in
Visibility 10.0 miles
Clouds Clear
Dew Point 64 °F
Humidity 94%
Rainfall 0.00 in
Snow Depth Not available.
6:50 AM 8:03 PM
Waning Gibbous, 50% visible
METAR KBLF 250352Z AUTO 20004KT 10SM CLR 21/17 A3028 RMK AO2 SLP220 T02060172

10-Day Weather Forecast

Almanac

Astronomy

Aug. 25, 2016 Rise Set
Actual Time
Civil Twilight
Nautical Twilight
Astronomical Twilight
Moon
Length of Visible Light
Length of Day
Tomorrow will be .
, % of the Moon is Illuminated

Today's Extremes

State Highs State Lows

Community

WunderPhotos

Upload Photos

1,934,796 photos uploaded!

WunderBlog® & News

Nearby

Air Quality

  Air Quality AQ Index Pollutant
Not available.

Snow Depth

Station Depth Elevation

Earthquake Activity

City Distance Mag. Time & Date
Minimum magnitude displayed is 2.5.

Coastal Water Temperatures

Place Temperature

Stations

Nearby Weather Stations

Station Location Temp. Windchill Dew Point Humidity Wind Precip. Elev Updated Type
                   

Watches & Warnings

There are currently no watches in effect.